This is the latest recevied weather packets stored in our database for station/object R6DH-11. If no packets are shown the sender has not sent any weather packets the latest 10 day(s).
| Time | Temp. | Humidity | Pressure | Rain* | Wind** | Luminosity | Snow |
|---|---|---|---|---|---|---|---|
| 1777859182 | 8.33° C | 68% | 1011.2 hPa | - | - | - | - |
| 1777858282 | 8.33° C | 69% | 1011.4 hPa | - | - | - | - |
| 1777857382 | 8.33° C | 68% | 1011.6 hPa | - | - | - | - |
| 1777856482 | 8.33° C | 68% | 1011.5 hPa | - | - | - | - |
| 1777855581 | 8.33° C | 69% | 1011.6 hPa | - | - | - | - |
| 1777854681 | 8.33° C | 70% | 1011.6 hPa | - | - | - | - |
| 1777853781 | 8.33° C | 70% | 1011.7 hPa | - | - | - | - |
| 1777852881 | 8.33° C | 70% | 1012.1 hPa | - | - | - | - |
| 1777851981 | 8.33° C | 70% | 1012.4 hPa | - | - | - | - |
| 1777851081 | 8.33° C | 69% | 1012.4 hPa | - | - | - | - |
| 1777850181 | 8.33° C | 70% | 1012.5 hPa | - | - | - | - |
| 1777849281 | 8.33° C | 70% | 1012.6 hPa | - | - | - | - |
| 1777848381 | 7.78° C | 71% | 1012.5 hPa | - | - | - | - |
| 1777847481 | 7.78° C | 72% | 1012.5 hPa | - | - | - | - |
| 1777845675 | 7.78° C | 72% | 1012.9 hPa | - | - | - | - |
| 1777844775 | 8.33° C | 70% | 1013.2 hPa | - | - | - | - |
| 1777842981 | 8.33° C | 71% | 1013.4 hPa | - | - | - | - |
| 1777841217 | 8.89° C | 69% | 1013.6 hPa | - | - | - | - |
| 1777840316 | 8.33° C | 69% | 1013.8 hPa | - | - | - | - |
| 1777839414 | 8.89° C | 69% | 1013.7 hPa | - | - | - | - |
| 1777838506 | 8.89° C | 68% | 1013.7 hPa | - | - | - | - |
| 1777837611 | 9.44° C | 67% | 1013.9 hPa | - | - | - | - |
| 1777836710 | 8.89° C | 67% | 1014 hPa | - | - | - | - |
| 1777835808 | 8.89° C | 69% | 1014.1 hPa | - | - | - | - |
| 1777834906 | 9.44° C | 66% | 1014.4 hPa | - | - | - | - |
* Rain since midnight (hover to see other rain measurements)
** Current wind speed in m/s (hover to see current wind gust speed)